Reeds Spring, Missouri
Current Conditions -  °F | °C
As of 11:35 PM on Wednesday 26 Nov 2014 (Local Time) from KFWB Reporting Station
Broken Clouds Broken Clouds  
Wind Chill: 22°   Ceiling: 2300
Heat Index: 32°   Visibility: 10mi
Dew Point: 25°   Wind: 14mph
Humidity: 75%   Direction: 320°NW
Pressure: 30.3"   Gusts: 26mph
Location:  36.75°N, 93.38°W
Report Text: KFWB 270535Z AUTO 32012G23KT 280V340 10SM BKN023 00/M04 A3030 RMK AO2
Loading
Personal Weather Stations






























Interactive Weather Map New forecast layout! Learn more

10-Day Weather Forecast

Advertisements
Track Severe Weather on mobile